createdAt,value
2022-09-20T00:00:02.767Z,3.58
2022-09-20T00:25:41.966Z,2.00
2022-09-20T00:28:10.894Z,1.90
2022-09-20T00:36:01.026Z,2.78
2022-09-20T00:38:33.523Z,2.25
2022-09-20T00:41:04.787Z,2.85
2022-09-20T00:43:40.208Z,2.05
2022-09-20T00:46:08.989Z,2.40
2022-09-20T00:48:36.651Z,2.33
2022-09-20T00:51:12.699Z,2.13
2022-09-20T00:59:06.278Z,1.92
2022-09-20T01:18:45.617Z,2.70
2022-09-20T01:21:13.773Z,2.17
2022-09-20T01:24:04.228Z,2.45
2022-09-20T01:26:52.314Z,2.33
2022-09-20T01:29:23.583Z,2.92
2022-09-20T01:31:54.561Z,2.28
2022-09-20T01:34:31.431Z,2.30
2022-09-20T01:37:11.329Z,2.28
2022-09-20T01:39:49.650Z,2.20
2022-09-20T01:42:17.769Z,2.50
2022-09-20T01:45:02.241Z,2.47
2022-09-20T01:47:29.620Z,1.83
2022-09-20T01:50:06.360Z,2.28
2022-09-20T01:52:56.894Z,2.45
2022-09-20T01:55:36.416Z,2.75
2022-09-20T01:58:26.823Z,2.20
2022-09-20T02:03:54.747Z,2.55
2022-09-20T02:20:14.767Z,3.67
2022-09-20T02:22:45.101Z,2.92
2022-09-20T02:25:22.071Z,1.98
2022-09-20T02:50:26.963Z,1.90
2022-09-20T03:49:26.296Z,3.10
2022-09-20T03:52:09.006Z,2.88
2022-09-20T03:54:39.837Z,4.55
2022-09-20T03:57:16.777Z,2.85
2022-09-20T04:00:06.501Z,2.65
2022-09-20T04:02:49.416Z,2.40
2022-09-20T04:05:22.606Z,2.05
2022-09-20T04:08:00.406Z,2.63
2022-09-20T04:10:33.981Z,2.70
2022-09-20T04:13:10.674Z,2.88
2022-09-20T04:15:59.576Z,3.33
2022-09-20T04:18:52.872Z,2.28
2022-09-20T04:23:54.080Z,2.53
2022-09-20T04:26:27.058Z,2.65
2022-09-20T04:28:56.607Z,2.83
2022-09-20T04:31:27.599Z,2.88
2022-09-20T04:33:58.237Z,3.65
2022-09-20T04:36:39.580Z,3.08
2022-09-20T04:39:10.239Z,2.88
2022-09-20T04:41:50.485Z,3.75
2022-09-20T04:44:37.712Z,3.90
2022-09-20T04:47:23.771Z,2.97
2022-09-20T04:49:51.186Z,3.35
2022-09-20T04:52:25.968Z,2.65
2022-09-20T04:54:56.464Z,3.33
2022-09-20T04:57:49.651Z,3.20
2022-09-20T05:00:22.356Z,2.13
2022-09-20T05:03:06.529Z,2.50
2022-09-20T05:05:40.132Z,2.47
2022-09-20T05:08:22.949Z,2.85
2022-09-20T05:11:10.376Z,2.90
2022-09-20T05:13:54.854Z,2.95
2022-09-20T05:16:44.050Z,2.60
2022-09-20T05:19:14.931Z,2.88
2022-09-20T05:21:50.774Z,2.67
2022-09-20T05:24:44.806Z,3.08
2022-09-20T05:27:51.140Z,4.78
2022-09-20T05:30:31.097Z,3.75
2022-09-20T05:32:59.334Z,2.85
2022-09-20T05:35:45.410Z,4.00
2022-09-20T05:38:14.846Z,2.10
2022-09-20T05:40:51.172Z,2.67
2022-09-20T05:43:21.469Z,3.15
2022-09-20T05:45:58.012Z,3.38
2022-09-20T05:48:46.401Z,3.22
2022-09-20T05:51:32.051Z,4.00
2022-09-20T05:54:20.895Z,3.75
2022-09-20T05:57:08.559Z,2.53
2022-09-20T05:59:47.366Z,3.65
2022-09-20T06:02:36.514Z,3.35
2022-09-20T06:05:14.880Z,3.13
2022-09-20T06:07:51.475Z,2.85
2022-09-20T06:10:32.006Z,3.35
2022-09-20T06:13:23.407Z,3.13
2022-09-20T06:16:00.229Z,3.97
2022-09-20T06:18:30.289Z,3.25
2022-09-20T06:20:57.901Z,3.45
2022-09-20T06:23:31.624Z,3.13
2022-09-20T06:26:24.419Z,3.08
2022-09-20T06:28:58.420Z,3.47
2022-09-20T06:31:32.084Z,3.53
2022-09-20T06:34:04.521Z,2.88
2022-09-20T06:36:53.345Z,2.20
2022-09-20T06:39:45.056Z,3.80
2022-09-20T06:42:13.927Z,2.78
2022-09-20T06:44:43.861Z,2.53
2022-09-20T06:47:13.335Z,2.83
2022-09-20T06:49:43.042Z,2.80
2022-09-20T06:52:15.522Z,3.42
2022-09-20T06:54:49.914Z,3.75
2022-09-20T06:57:43.943Z,3.67
2022-09-20T07:00:22.882Z,3.47
2022-09-20T07:02:53.470Z,3.40
2022-09-20T07:05:23.860Z,3.22
2022-09-20T07:07:52.246Z,2.95
2022-09-20T07:10:19.937Z,3.85
2022-09-20T07:12:47.465Z,3.17
2022-09-20T07:15:15.854Z,2.33
2022-09-20T07:17:48.113Z,2.50
2022-09-20T07:20:21.478Z,3.55
2022-09-20T07:22:52.767Z,3.35
2022-09-20T07:25:22.715Z,3.90
2022-09-20T07:27:51.050Z,3.58
2022-09-20T07:30:19.480Z,3.95
2022-09-20T07:40:48.897Z,4.10
2022-09-20T07:43:16.697Z,5.15
2022-09-20T07:45:44.579Z,2.92
2022-09-20T07:48:12.332Z,3.67
2022-09-20T07:50:42.556Z,3.67
2022-09-20T07:53:10.161Z,3.55
2022-09-20T07:55:37.796Z,3.78
2022-09-20T07:58:10.431Z,3.83
2022-09-20T08:00:45.178Z,5.00
2022-09-20T08:31:06.796Z,9.77
2022-09-20T08:45:09.207Z,7.70
2022-09-20T08:47:39.212Z,9.52
2022-09-20T08:50:35.015Z,7.32
2022-09-20T08:53:06.232Z,8.65
2022-09-20T08:55:37.932Z,7.78
2022-09-20T08:58:08.725Z,7.30
2022-09-20T09:00:37.211Z,7.95
2022-09-20T09:03:14.051Z,7.20
2022-09-20T09:08:58.661Z,6.43
2022-09-20T09:11:29.211Z,7.60
2022-09-20T09:13:59.257Z,5.75
2022-09-20T09:42:21.470Z,7.70
2022-09-20T09:47:34.750Z,9.05
2022-09-20T09:50:43.695Z,7.35
2022-09-20T09:59:14.385Z,9.00
2022-09-20T10:22:04.717Z,8.90
2022-09-20T10:30:13.178Z,10.45
2022-09-20T10:41:23.487Z,8.20
2022-09-20T11:09:14.148Z,8.50
2022-09-20T11:11:50.595Z,9.93
2022-09-20T11:14:33.955Z,11.18
2022-09-20T11:17:26.803Z,8.40
2022-09-20T11:22:48.968Z,9.20
2022-09-20T11:28:23.686Z,9.10
2022-09-20T11:33:48.485Z,9.68
2022-09-20T11:36:46.961Z,10.85
2022-09-20T11:39:20.060Z,9.30
2022-09-20T11:47:54.638Z,8.30
2022-09-20T11:50:45.986Z,8.15
2022-09-20T12:02:08.180Z,9.80
2022-09-20T12:21:22.701Z,8.85
2022-09-20T12:29:36.642Z,9.85
2022-09-20T12:32:23.957Z,8.80
2022-09-20T12:34:53.279Z,9.63
2022-09-20T12:37:24.483Z,9.27
2022-09-20T12:39:59.504Z,9.25
2022-09-20T12:42:31.740Z,10.63
2022-09-20T12:45:08.913Z,9.45
2022-09-20T12:47:37.666Z,9.45
2022-09-20T12:50:32.106Z,9.02
2022-09-20T12:53:07.070Z,9.98
2022-09-20T12:55:39.132Z,9.07
2022-09-20T13:06:21.015Z,8.63
2022-09-20T13:28:34.628Z,7.40
2022-09-20T13:47:06.712Z,7.60
2022-09-20T14:03:37.240Z,9.68
2022-09-20T17:30:47.873Z,6.80
2022-09-20T17:50:03.983Z,6.45
2022-09-20T17:52:34.377Z,6.82
2022-09-20T17:55:01.817Z,5.15
2022-09-20T17:57:29.265Z,6.55
2022-09-20T17:59:56.750Z,6.45
2022-09-20T18:02:27.551Z,7.47
2022-09-20T18:04:55.702Z,7.72
2022-09-20T18:07:29.968Z,5.45
2022-09-20T18:09:58.376Z,7.18
2022-09-20T18:12:28.808Z,6.63
2022-09-20T18:15:00.968Z,5.05
2022-09-20T18:17:31.652Z,5.65
2022-09-20T18:20:01.752Z,7.50
2022-09-20T19:10:03.732Z,4.93
2022-09-20T19:12:37.922Z,6.20
2022-09-20T19:15:31.737Z,6.43
2022-09-20T19:18:23.637Z,5.30
2022-09-20T19:20:51.403Z,6.50
2022-09-20T20:01:01.875Z,7.20
2022-09-20T20:03:33.524Z,6.47
2022-09-20T20:06:07.900Z,6.28
2022-09-20T20:08:36.602Z,5.32
2022-09-20T20:11:25.040Z,4.93
2022-09-20T20:14:07.319Z,5.22
2022-09-20T20:16:47.582Z,6.03
2022-09-20T20:19:33.638Z,6.28
2022-09-20T20:22:24.399Z,5.70
2022-09-20T20:24:54.596Z,5.63
2022-09-20T20:27:25.364Z,7.05
2022-09-20T20:29:53.752Z,6.80
2022-09-20T20:32:26.834Z,5.70
2022-09-20T20:35:00.147Z,5.45
2022-09-20T20:37:28.769Z,6.28
2022-09-20T20:39:57.306Z,5.95
2022-09-20T20:42:27.224Z,5.30
2022-09-20T20:44:54.768Z,5.88
2022-09-20T20:47:22.639Z,5.93
2022-09-20T20:49:58.499Z,4.82
2022-09-20T20:52:28.021Z,6.28
2022-09-20T20:54:57.150Z,5.25
2022-09-20T20:57:30.321Z,5.68
2022-09-20T20:59:57.971Z,5.30
2022-09-20T21:02:25.542Z,5.10
2022-09-20T21:04:54.238Z,6.03
2022-09-20T21:07:24.953Z,5.38
2022-09-20T21:09:57.588Z,4.70
2022-09-20T21:12:28.771Z,6.60
2022-09-20T21:14:56.167Z,6.78
2022-09-20T21:17:23.644Z,6.07
2022-09-20T21:19:52.784Z,6.20
2022-09-20T21:22:25.839Z,5.05
2022-09-20T21:24:55.968Z,5.22
2022-09-20T21:27:27.871Z,5.85
2022-09-20T21:29:55.701Z,4.82
2022-09-20T21:32:23.179Z,5.20
2022-09-20T21:34:53.408Z,5.43
2022-09-20T21:37:21.228Z,4.95
2022-09-20T21:39:48.664Z,6.10
2022-09-20T21:42:20.431Z,5.82
2022-09-20T21:44:48.172Z,6.53
2022-09-20T21:47:20.775Z,5.50
2022-09-20T21:49:50.983Z,4.88
2022-09-20T21:52:24.846Z,27.13
2022-09-20T21:54:52.541Z,11.30
2022-09-20T21:57:23.288Z,7.97
2022-09-20T21:59:53.661Z,6.10
2022-09-20T22:02:26.435Z,8.98
2022-09-20T22:04:59.978Z,5.95
2022-09-20T22:07:27.424Z,5.13
2022-09-20T22:09:54.906Z,5.43
2022-09-20T22:12:24.098Z,6.35
2022-09-20T22:14:53.880Z,7.60
2022-09-20T22:17:23.859Z,6.70
2022-09-20T22:19:51.299Z,6.07
2022-09-20T22:22:21.729Z,5.72
2022-09-20T22:24:49.220Z,6.20
2022-09-20T22:27:16.682Z,6.53
2022-09-20T22:29:44.197Z,6.07
2022-09-20T22:32:11.720Z,4.80
2022-09-20T22:34:39.270Z,9.85
2022-09-20T22:37:06.735Z,5.97
2022-09-20T22:39:34.150Z,6.13
2022-09-20T22:42:03.638Z,6.00
2022-09-20T22:44:31.023Z,5.45
2022-09-20T22:46:58.425Z,6.35
2022-09-20T22:49:25.803Z,5.68
2022-09-20T22:51:53.204Z,5.95
2022-09-20T22:54:21.014Z,6.32
2022-09-20T22:56:53.557Z,5.47
2022-09-20T22:59:21.056Z,5.05
2022-09-20T23:01:49.253Z,6.70
2022-09-20T23:04:18.175Z,6.22
2022-09-20T23:06:51.360Z,7.13
2022-09-20T23:09:21.751Z,5.55
2022-09-20T23:11:49.502Z,6.20
2022-09-20T23:14:20.254Z,6.57
2022-09-20T23:16:47.957Z,7.75
2022-09-20T23:19:17.569Z,6.75
2022-09-20T23:21:45.367Z,8.23
2022-09-20T23:24:17.874Z,9.02
2022-09-20T23:29:14.005Z,6.70
2022-09-20T23:31:45.805Z,8.13
2022-09-20T23:34:14.613Z,6.90
2022-09-20T23:36:43.040Z,6.68
2022-09-20T23:39:11.403Z,6.43
2022-09-20T23:41:40.385Z,5.82
2022-09-20T23:44:13.144Z,6.80
2022-09-20T23:46:40.681Z,6.85
2022-09-20T23:49:09.869Z,6.10
2022-09-20T23:51:38.833Z,6.80
2022-09-20T23:54:08.095Z,6.15
2022-09-20T23:56:36.532Z,7.68
2022-09-20T23:59:13.849Z,7.43
